New Carlisle, IN (46552)

1:00 AM EDT on September 04, 2015 (GMT -0400)
Bendix Woods County Park | | Change Station
CLOSE
Current Station
Personal Weather Station
Location: New Carlisle, IN
Elevation: 835 ft
Nearby Weather Stations

Elev 835 ft 41.66 °N, 86.51 °W | Updated 4 seconds ago

Partly Cloudy
Partly Cloudy
69.1 °F
Feels Like 69.1 °F
N
0.0
Wind Variable Wind from North
Gusts 3.0 mph

Today
High -- | Low -- °F
--% Chance of Precip.
Yesterday
High -- | Low -- °F
Precip. -- in
7:14 AM 8:14 PM
Waning Gibbous, 63% visible
Pressure 29.94 in
Visibility 10.0 miles
Clouds Few 4500 ft
Few 5500 ft
Few 7500 ft
Dew Point 67 °F
Humidity 92%
Rainfall 0.00 in
Snow Depth Not available.
UV 0 out of 12
Pollen 10.10 out of 12
Air Quality Not available.
Flu Activity Not available.
METAR KSBN 040454Z AUTO 32006KT 10SM FEW045 FEW055 FEW075 21/19 A2996 RMK AO2 SLP137 T02110194 403220211 TSNO
Pressure 29.94 in
Visibility 10.0 miles
Clouds Few 4500 ft
Few 5500 ft
Few 7500 ft
Dew Point 67 °F
Humidity 92%
Rainfall 0.00 in
Snow Depth Not available.
UV 0 out of 12
Pollen 10.10 out of 12
Air Quality Not available.
Flu Activity Not available.
METAR KSBN 040454Z AUTO 32006KT 10SM FEW045 FEW055 FEW075 21/19 A2996 RMK AO2 SLP137 T02110194 403220211 TSNO

10-Day Weather Forecast

×

Almanac

Astronomy

Sep. 04, 2015 Rise Set
Actual Time
Civil Twilight
Nautical Twilight
Astronomical Twilight
Moon
Length of Visible Light
Length of Day
Tomorrow will be .
, % of the Moon is Illuminated

Today's Extremes

State Highs State Lows

Community

WunderPhotos

Upload Photos

1,852,129 photos uploaded!

WunderBlogs® & News

Nearby

Air Quality

  Air Quality AQ Index Pollutant
Not available.

Snow Depth

Station Depth Elevation

Earthquake Activity

City Distance Mag. Time & Date
Minimum magnitude displayed is 2.5.

Coastal Water Temperatures

Place Temperature

Stations

Nearby Weather Stations

Station Location Temp. Windchill Dew Point Humidity Wind Precip. Elev Updated Type